sensor_id;sensor_type;location;lat;lon;timestamp;temperature;humidity
43671;DHT22;29267;50.906;7.248;2023-05-28T00:00:09;13.70;93.80
43671;DHT22;29267;50.906;7.248;2023-05-28T00:02:36;13.60;94.10
43671;DHT22;29267;50.906;7.248;2023-05-28T00:05:02;13.50;94.30
43671;DHT22;29267;50.906;7.248;2023-05-28T00:07:28;13.50;94.40
43671;DHT22;29267;50.906;7.248;2023-05-28T00:09:54;13.50;94.70
43671;DHT22;29267;50.906;7.248;2023-05-28T00:12:21;13.40;95.00
43671;DHT22;29267;50.906;7.248;2023-05-28T00:14:47;13.30;95.20
43671;DHT22;29267;50.906;7.248;2023-05-28T00:17:13;13.30;95.20
43671;DHT22;29267;50.906;7.248;2023-05-28T00:19:39;13.20;95.40
43671;DHT22;29267;50.906;7.248;2023-05-28T00:22:05;13.20;95.90
43671;DHT22;29267;50.906;7.248;2023-05-28T00:24:31;13.20;95.60
43671;DHT22;29267;50.906;7.248;2023-05-28T00:26:56;13.20;95.60
43671;DHT22;29267;50.906;7.248;2023-05-28T00:29:22;13.10;96.40
43671;DHT22;29267;50.906;7.248;2023-05-28T00:31:49;13.00;96.60
43671;DHT22;29267;50.906;7.248;2023-05-28T00:34:16;12.90;96.90
43671;DHT22;29267;50.906;7.248;2023-05-28T00:36:42;12.80;97.40
43671;DHT22;29267;50.906;7.248;2023-05-28T00:39:07;12.70;98.30
43671;DHT22;29267;50.906;7.248;2023-05-28T00:41:33;12.60;99.10
43671;DHT22;29267;50.906;7.248;2023-05-28T00:44:01;12.40;99.70
43671;DHT22;29267;50.906;7.248;2023-05-28T00:46:28;12.40;99.90
43671;DHT22;29267;50.906;7.248;2023-05-28T00:48:54;12.20;99.90
43671;DHT22;29267;50.906;7.248;2023-05-28T00:51:20;12.20;99.90
43671;DHT22;29267;50.906;7.248;2023-05-28T00:53:46;12.10;99.90
43671;DHT22;29267;50.906;7.248;2023-05-28T00:56:11;12.00;99.90
43671;DHT22;29267;50.906;7.248;2023-05-28T00:58:38;12.00;99.90
43671;DHT22;29267;50.906;7.248;2023-05-28T01:01:07;12.00;99.90
43671;DHT22;29267;50.906;7.248;2023-05-28T01:03:35;12.00;99.90
43671;DHT22;29267;50.906;7.248;2023-05-28T01:06:06;12.00;99.90
43671;DHT22;29267;50.906;7.248;2023-05-28T01:08:32;11.90;99.90
43671;DHT22;29267;50.906;7.248;2023-05-28T01:10:59;11.80;99.90
43671;DHT22;29267;50.906;7.248;2023-05-28T01:13:25;11.70;99.90
43671;DHT22;29267;50.906;7.248;2023-05-28T01:15:51;11.60;99.90
43671;DHT22;29267;50.906;7.248;2023-05-28T01:18:17;11.50;99.90
43671;DHT22;29267;50.906;7.248;2023-05-28T01:20:42;11.40;99.90
43671;DHT22;29267;50.906;7.248;2023-05-28T01:23:11;11.40;99.90
43671;DHT22;29267;50.906;7.248;2023-05-28T01:25:38;11.30;99.90
43671;DHT22;29267;50.906;7.248;2023-05-28T01:28:13;11.30;99.90
43671;DHT22;29267;50.906;7.248;2023-05-28T01:30:39;11.30;99.90
43671;DHT22;29267;50.906;7.248;2023-05-28T01:33:06;11.20;99.90
43671;DHT22;29267;50.906;7.248;2023-05-28T01:35:32;11.20;99.90
43671;DHT22;29267;50.906;7.248;2023-05-28T01:38:01;11.10;99.90
43671;DHT22;29267;50.906;7.248;2023-05-28T01:40:27;11.00;99.90
43671;DHT22;29267;50.906;7.248;2023-05-28T01:42:53;11.00;99.90
43671;DHT22;29267;50.906;7.248;2023-05-28T01:45:21;10.90;99.90
43671;DHT22;29267;50.906;7.248;2023-05-28T01:47:48;10.80;99.90
43671;DHT22;29267;50.906;7.248;2023-05-28T01:50:14;10.80;99.90
43671;DHT22;29267;50.906;7.248;2023-05-28T01:52:40;10.70;99.90
43671;DHT22;29267;50.906;7.248;2023-05-28T01:55:06;10.70;99.90
43671;DHT22;29267;50.906;7.248;2023-05-28T01:57:34;10.70;99.90
43671;DHT22;29267;50.906;7.248;2023-05-28T02:00:00;10.70;99.90
43671;DHT22;29267;50.906;7.248;2023-05-28T02:02:26;10.60;99.90
43671;DHT22;29267;50.906;7.248;2023-05-28T02:04:53;10.50;99.90
43671;DHT22;29267;50.906;7.248;2023-05-28T02:07:18;10.40;99.90
43671;DHT22;29267;50.906;7.248;2023-05-28T02:09:44;10.40;99.90
43671;DHT22;29267;50.906;7.248;2023-05-28T02:12:11;10.30;99.90
43671;DHT22;29267;50.906;7.248;2023-05-28T02:14:36;10.30;99.90
43671;DHT22;29267;50.906;7.248;2023-05-28T02:17:02;10.20;99.90
43671;DHT22;29267;50.906;7.248;2023-05-28T02:19:28;10.20;99.90
43671;DHT22;29267;50.906;7.248;2023-05-28T02:21:54;10.20;99.90
43671;DHT22;29267;50.906;7.248;2023-05-28T02:24:21;10.20;99.90
43671;DHT22;29267;50.906;7.248;2023-05-28T02:26:47;10.20;99.90
43671;DHT22;29267;50.906;7.248;2023-05-28T02:29:13;10.20;99.90
43671;DHT22;29267;50.906;7.248;2023-05-28T02:31:39;10.20;99.90
43671;DHT22;29267;50.906;7.248;2023-05-28T02:34:05;10.20;99.90
43671;DHT22;29267;50.906;7.248;2023-05-28T02:36:30;10.30;99.90
43671;DHT22;29267;50.906;7.248;2023-05-28T02:38:58;10.30;99.90
43671;DHT22;29267;50.906;7.248;2023-05-28T02:41:24;10.30;99.90
43671;DHT22;29267;50.906;7.248;2023-05-28T02:43:51;10.20;99.90
43671;DHT22;29267;50.906;7.248;2023-05-28T02:46:17;10.30;99.90
43671;DHT22;29267;50.906;7.248;2023-05-28T02:48:42;10.30;99.90
43671;DHT22;29267;50.906;7.248;2023-05-28T02:51:10;10.30;99.90
43671;DHT22;29267;50.906;7.248;2023-05-28T02:53:35;10.20;99.90
43671;DHT22;29267;50.906;7.248;2023-05-28T02:56:01;10.20;99.90
43671;DHT22;29267;50.906;7.248;2023-05-28T02:58:26;10.10;99.90
43671;DHT22;29267;50.906;7.248;2023-05-28T03:00:54;10.00;99.90
43671;DHT22;29267;50.906;7.248;2023-05-28T03:03:20;9.90;99.90
43671;DHT22;29267;50.906;7.248;2023-05-28T03:05:46;9.90;99.90
43671;DHT22;29267;50.906;7.248;2023-05-28T03:08:11;9.80;99.90
43671;DHT22;29267;50.906;7.248;2023-05-28T03:10:37;9.70;99.90
43671;DHT22;29267;50.906;7.248;2023-05-28T03:13:02;9.70;99.90
43671;DHT22;29267;50.906;7.248;2023-05-28T03:15:28;9.70;99.90
43671;DHT22;29267;50.906;7.248;2023-05-28T03:17:54;9.70;99.90
43671;DHT22;29267;50.906;7.248;2023-05-28T03:20:19;9.80;99.90
43671;DHT22;29267;50.906;7.248;2023-05-28T03:22:47;9.90;99.90
43671;DHT22;29267;50.906;7.248;2023-05-28T03:25:13;10.00;99.90
43671;DHT22;29267;50.906;7.248;2023-05-28T03:27:39;10.00;99.90
43671;DHT22;29267;50.906;7.248;2023-05-28T03:30:05;10.00;99.90
43671;DHT22;29267;50.906;7.248;2023-05-28T03:32:33;10.00;99.90
43671;DHT22;29267;50.906;7.248;2023-05-28T03:34:58;10.00;99.90
43671;DHT22;29267;50.906;7.248;2023-05-28T03:37:24;10.00;99.90
43671;DHT22;29267;50.906;7.248;2023-05-28T03:39:52;10.00;99.90
43671;DHT22;29267;50.906;7.248;2023-05-28T03:42:18;10.00;99.90
43671;DHT22;29267;50.906;7.248;2023-05-28T03:44:43;10.00;99.90
43671;DHT22;29267;50.906;7.248;2023-05-28T03:47:09;9.90;99.90
43671;DHT22;29267;50.906;7.248;2023-05-28T03:49:35;9.90;99.90
43671;DHT22;29267;50.906;7.248;2023-05-28T03:52:00;9.90;99.90
43671;DHT22;29267;50.906;7.248;2023-05-28T03:54:26;10.00;99.90
43671;DHT22;29267;50.906;7.248;2023-05-28T03:56:52;10.00;99.90
43671;DHT22;29267;50.906;7.248;2023-05-28T03:59:17;10.00;99.90
43671;DHT22;29267;50.906;7.248;2023-05-28T04:01:43;10.10;99.90
43671;DHT22;29267;50.906;7.248;2023-05-28T04:04:08;10.20;99.90
43671;DHT22;29267;50.906;7.248;2023-05-28T04:06:34;10.30;99.90
43671;DHT22;29267;50.906;7.248;2023-05-28T04:09:00;10.30;99.90
43671;DHT22;29267;50.906;7.248;2023-05-28T04:11:26;10.40;99.90
43671;DHT22;29267;50.906;7.248;2023-05-28T04:13:54;10.40;99.90
43671;DHT22;29267;50.906;7.248;2023-05-28T04:16:23;10.50;99.90
43671;DHT22;29267;50.906;7.248;2023-05-28T04:18:49;10.60;99.90
43671;DHT22;29267;50.906;7.248;2023-05-28T04:21:15;10.60;99.90
43671;DHT22;29267;50.906;7.248;2023-05-28T04:23:40;10.60;99.90
43671;DHT22;29267;50.906;7.248;2023-05-28T04:26:06;10.60;99.90
43671;DHT22;29267;50.906;7.248;2023-05-28T04:28:35;10.60;99.90
43671;DHT22;29267;50.906;7.248;2023-05-28T04:31:02;10.70;99.90
43671;DHT22;29267;50.906;7.248;2023-05-28T04:33:28;11.30;99.90
43671;DHT22;29267;50.906;7.248;2023-05-28T04:35:55;12.30;99.90
43671;DHT22;29267;50.906;7.248;2023-05-28T04:38:21;13.50;99.90
43671;DHT22;29267;50.906;7.248;2023-05-28T04:40:46;14.90;99.90
43671;DHT22;29267;50.906;7.248;2023-05-28T04:43:12;16.00;99.90
43671;DHT22;29267;50.906;7.248;2023-05-28T04:45:37;16.90;97.80
43671;DHT22;29267;50.906;7.248;2023-05-28T04:48:03;17.70;95.80
43671;DHT22;29267;50.906;7.248;2023-05-28T04:50:29;17.90;94.60
43671;DHT22;29267;50.906;7.248;2023-05-28T04:52:55;18.80;93.50
43671;DHT22;29267;50.906;7.248;2023-05-28T04:55:21;19.60;91.80
43671;DHT22;29267;50.906;7.248;2023-05-28T04:57:47;20.10;90.70
43671;DHT22;29267;50.906;7.248;2023-05-28T05:00:13;20.30;90.40
43671;DHT22;29267;50.906;7.248;2023-05-28T05:02:39;20.20;90.30
43671;DHT22;29267;50.906;7.248;2023-05-28T05:05:08;20.40;88.70
43671;DHT22;29267;50.906;7.248;2023-05-28T05:07:37;21.30;86.90
43671;DHT22;29267;50.906;7.248;2023-05-28T05:10:12;21.40;87.00
43671;DHT22;29267;50.906;7.248;2023-05-28T05:12:39;21.50;84.50
43671;DHT22;29267;50.906;7.248;2023-05-28T05:15:05;21.20;85.80
43671;DHT22;29267;50.906;7.248;2023-05-28T05:17:31;21.50;85.10
43671;DHT22;29267;50.906;7.248;2023-05-28T05:19:57;21.40;84.60
43671;DHT22;29267;50.906;7.248;2023-05-28T05:22:23;21.80;82.10
43671;DHT22;29267;50.906;7.248;2023-05-28T05:24:49;21.60;82.60
43671;DHT22;29267;50.906;7.248;2023-05-28T05:27:15;21.80;83.30
43671;DHT22;29267;50.906;7.248;2023-05-28T05:29:41;21.90;82.10
43671;DHT22;29267;50.906;7.248;2023-05-28T05:32:09;22.60;82.50
43671;DHT22;29267;50.906;7.248;2023-05-28T05:34:35;23.20;79.60
43671;DHT22;29267;50.906;7.248;2023-05-28T05:37:01;23.40;78.70
43671;DHT22;29267;50.906;7.248;2023-05-28T05:39:26;23.80;79.10
43671;DHT22;29267;50.906;7.248;2023-05-28T05:41:52;24.00;78.40
43671;DHT22;29267;50.906;7.248;2023-05-28T05:44:18;24.50;78.00
43671;DHT22;29267;50.906;7.248;2023-05-28T05:46:44;25.10;76.60
43671;DHT22;29267;50.906;7.248;2023-05-28T05:49:09;25.50;75.20
43671;DHT22;29267;50.906;7.248;2023-05-28T05:51:35;25.30;75.80
43671;DHT22;29267;50.906;7.248;2023-05-28T05:54:04;25.30;75.30
43671;DHT22;29267;50.906;7.248;2023-05-28T05:56:30;25.00;75.00
43671;DHT22;29267;50.906;7.248;2023-05-28T05:58:57;25.20;76.00
43671;DHT22;29267;50.906;7.248;2023-05-28T06:01:23;25.30;75.30
43671;DHT22;29267;50.906;7.248;2023-05-28T06:03:48;25.70;75.20
43671;DHT22;29267;50.906;7.248;2023-05-28T06:06:14;27.60;72.00
43671;DHT22;29267;50.906;7.248;2023-05-28T06:08:39;27.80;70.40
43671;DHT22;29267;50.906;7.248;2023-05-28T06:11:05;26.60;70.40
43671;DHT22;29267;50.906;7.248;2023-05-28T06:13:31;26.00;72.80
43671;DHT22;29267;50.906;7.248;2023-05-28T06:15:57;26.00;72.90
43671;DHT22;29267;50.906;7.248;2023-05-28T06:18:23;26.50;72.10
43671;DHT22;29267;50.906;7.248;2023-05-28T06:20:49;26.50;72.70
43671;DHT22;29267;50.906;7.248;2023-05-28T06:23:15;26.60;72.20
43671;DHT22;29267;50.906;7.248;2023-05-28T06:25:41;27.70;70.30
43671;DHT22;29267;50.906;7.248;2023-05-28T06:28:09;27.90;67.70
43671;DHT22;29267;50.906;7.248;2023-05-28T06:30:35;27.30;69.10
43671;DHT22;29267;50.906;7.248;2023-05-28T06:33:01;27.70;66.40
43671;DHT22;29267;50.906;7.248;2023-05-28T06:35:26;28.20;67.20
43671;DHT22;29267;50.906;7.248;2023-05-28T06:37:52;28.80;65.00
43671;DHT22;29267;50.906;7.248;2023-05-28T06:40:18;28.90;65.40
43671;DHT22;29267;50.906;7.248;2023-05-28T06:42:43;28.90;65.10
43671;DHT22;29267;50.906;7.248;2023-05-28T06:45:09;28.70;64.40
43671;DHT22;29267;50.906;7.248;2023-05-28T06:47:36;28.30;63.90
43671;DHT22;29267;50.906;7.248;2023-05-28T06:50:02;28.60;64.30
43671;DHT22;29267;50.906;7.248;2023-05-28T06:52:28;28.50;64.20
43671;DHT22;29267;50.906;7.248;2023-05-28T06:54:53;29.20;63.20
43671;DHT22;29267;50.906;7.248;2023-05-28T06:57:20;29.50;62.50
43671;DHT22;29267;50.906;7.248;2023-05-28T06:59:45;29.60;62.90
43671;DHT22;29267;50.906;7.248;2023-05-28T07:02:11;29.70;64.00
43671;DHT22;29267;50.906;7.248;2023-05-28T07:04:37;30.10;62.30
43671;DHT22;29267;50.906;7.248;2023-05-28T07:07:03;30.90;58.20
43671;DHT22;29267;50.906;7.248;2023-05-28T07:09:29;30.40;58.10
43671;DHT22;29267;50.906;7.248;2023-05-28T07:11:55;29.90;58.80
43671;DHT22;29267;50.906;7.248;2023-05-28T07:14:20;30.20;59.70
43671;DHT22;29267;50.906;7.248;2023-05-28T07:16:46;30.50;59.00
43671;DHT22;29267;50.906;7.248;2023-05-28T07:19:12;30.40;58.90
43671;DHT22;29267;50.906;7.248;2023-05-28T07:21:37;30.70;58.90
43671;DHT22;29267;50.906;7.248;2023-05-28T07:24:04;29.90;58.70
43671;DHT22;29267;50.906;7.248;2023-05-28T07:26:31;29.90;59.50
43671;DHT22;29267;50.906;7.248;2023-05-28T07:28:57;30.10;61.10
43671;DHT22;29267;50.906;7.248;2023-05-28T07:31:22;30.80;61.10
43671;DHT22;29267;50.906;7.248;2023-05-28T07:33:49;31.50;59.20
43671;DHT22;29267;50.906;7.248;2023-05-28T07:36:14;31.90;58.60
43671;DHT22;29267;50.906;7.248;2023-05-28T07:38:42;31.80;55.60
43671;DHT22;29267;50.906;7.248;2023-05-28T07:41:07;32.00;58.50
43671;DHT22;29267;50.906;7.248;2023-05-28T07:43:33;31.90;58.30
43671;DHT22;29267;50.906;7.248;2023-05-28T07:45:58;32.30;57.70
43671;DHT22;29267;50.906;7.248;2023-05-28T07:48:24;31.30;56.50
43671;DHT22;29267;50.906;7.248;2023-05-28T07:50:49;31.50;54.90
43671;DHT22;29267;50.906;7.248;2023-05-28T07:53:15;32.00;55.60
43671;DHT22;29267;50.906;7.248;2023-05-28T07:55:42;32.30;55.60
43671;DHT22;29267;50.906;7.248;2023-05-28T07:58:08;31.70;55.30
43671;DHT22;29267;50.906;7.248;2023-05-28T08:00:34;31.90;53.00
43671;DHT22;29267;50.906;7.248;2023-05-28T08:03:02;32.00;52.40
43671;DHT22;29267;50.906;7.248;2023-05-28T08:05:28;31.50;53.30
43671;DHT22;29267;50.906;7.248;2023-05-28T08:07:54;31.20;54.80
43671;DHT22;29267;50.906;7.248;2023-05-28T08:10:19;31.40;53.60
43671;DHT22;29267;50.906;7.248;2023-05-28T08:12:45;32.00;53.90
43671;DHT22;29267;50.906;7.248;2023-05-28T08:15:11;31.40;52.70
43671;DHT22;29267;50.906;7.248;2023-05-28T08:17:36;31.20;54.80
43671;DHT22;29267;50.906;7.248;2023-05-28T08:20:02;32.00;53.30
43671;DHT22;29267;50.906;7.248;2023-05-28T08:22:29;32.20;53.00
43671;DHT22;29267;50.906;7.248;2023-05-28T08:24:54;32.10;54.70
43671;DHT22;29267;50.906;7.248;2023-05-28T08:27:20;32.20;50.20
43671;DHT22;29267;50.906;7.248;2023-05-28T08:29:46;32.30;51.10
43671;DHT22;29267;50.906;7.248;2023-05-28T08:32:12;32.50;52.30
43671;DHT22;29267;50.906;7.248;2023-05-28T08:34:38;32.40;51.40
43671;DHT22;29267;50.906;7.248;2023-05-28T08:37:04;32.40;51.00
43671;DHT22;29267;50.906;7.248;2023-05-28T08:39:29;31.80;51.30
43671;DHT22;29267;50.906;7.248;2023-05-28T08:41:56;31.60;51.20
43671;DHT22;29267;50.906;7.248;2023-05-28T08:44:22;32.50;51.00
43671;DHT22;29267;50.906;7.248;2023-05-28T08:46:48;32.00;52.30
43671;DHT22;29267;50.906;7.248;2023-05-28T08:49:17;32.40;51.70
43671;DHT22;29267;50.906;7.248;2023-05-28T08:51:43;32.30;50.50
43671;DHT22;29267;50.906;7.248;2023-05-28T08:54:12;32.60;50.70
43671;DHT22;29267;50.906;7.248;2023-05-28T08:56:39;32.10;50.50
43671;DHT22;29267;50.906;7.248;2023-05-28T08:59:05;31.40;50.40
43671;DHT22;29267;50.906;7.248;2023-05-28T09:01:31;32.10;48.80
43671;DHT22;29267;50.906;7.248;2023-05-28T09:03:58;32.00;49.10
43671;DHT22;29267;50.906;7.248;2023-05-28T09:06:23;32.50;49.50
43671;DHT22;29267;50.906;7.248;2023-05-28T09:08:51;32.60;49.00
43671;DHT22;29267;50.906;7.248;2023-05-28T09:11:18;32.30;49.40
43671;DHT22;29267;50.906;7.248;2023-05-28T09:13:45;32.10;48.40
43671;DHT22;29267;50.906;7.248;2023-05-28T09:16:11;31.60;48.60
43671;DHT22;29267;50.906;7.248;2023-05-28T09:18:37;31.10;50.50
43671;DHT22;29267;50.906;7.248;2023-05-28T09:21:09;31.70;49.90
43671;DHT22;29267;50.906;7.248;2023-05-28T09:23:37;32.40;48.40
43671;DHT22;29267;50.906;7.248;2023-05-28T09:26:04;32.00;49.00
43671;DHT22;29267;50.906;7.248;2023-05-28T09:28:34;32.10;49.00
43671;DHT22;29267;50.906;7.248;2023-05-28T09:31:04;32.50;48.20
43671;DHT22;29267;50.906;7.248;2023-05-28T09:33:30;32.00;49.50
43671;DHT22;29267;50.906;7.248;2023-05-28T09:35:59;32.60;48.00
43671;DHT22;29267;50.906;7.248;2023-05-28T09:38:25;32.60;47.00
43671;DHT22;29267;50.906;7.248;2023-05-28T09:40:53;32.60;48.10
43671;DHT22;29267;50.906;7.248;2023-05-28T09:43:27;34.00;48.10
43671;DHT22;29267;50.906;7.248;2023-05-28T09:46:08;34.20;48.00
43671;DHT22;29267;50.906;7.248;2023-05-28T09:48:34;33.30;48.70
43671;DHT22;29267;50.906;7.248;2023-05-28T09:51:03;32.60;48.60
43671;DHT22;29267;50.906;7.248;2023-05-28T09:53:31;32.20;48.90
43671;DHT22;29267;50.906;7.248;2023-05-28T09:56:02;32.50;45.40
43671;DHT22;29267;50.906;7.248;2023-05-28T09:58:31;31.80;46.70
43671;DHT22;29267;50.906;7.248;2023-05-28T10:01:01;31.30;47.40
43671;DHT22;29267;50.906;7.248;2023-05-28T10:03:34;31.10;46.50
43671;DHT22;29267;50.906;7.248;2023-05-28T10:06:06;30.60;47.50
43671;DHT22;29267;50.906;7.248;2023-05-28T10:08:37;30.70;49.40
43671;DHT22;29267;50.906;7.248;2023-05-28T10:11:05;30.50;50.00
43671;DHT22;29267;50.906;7.248;2023-05-28T10:13:34;30.50;49.90
43671;DHT22;29267;50.906;7.248;2023-05-28T10:16:00;30.10;48.90
43671;DHT22;29267;50.906;7.248;2023-05-28T10:18:26;30.10;51.40
43671;DHT22;29267;50.906;7.248;2023-05-28T10:20:53;30.00;50.10
43671;DHT22;29267;50.906;7.248;2023-05-28T10:23:20;29.40;49.10
43671;DHT22;29267;50.906;7.248;2023-05-28T10:25:46;29.10;50.50
43671;DHT22;29267;50.906;7.248;2023-05-28T10:28:15;28.90;50.50
43671;DHT22;29267;50.906;7.248;2023-05-28T10:30:41;28.40;50.30
43671;DHT22;29267;50.906;7.248;2023-05-28T10:33:16;28.30;53.90
43671;DHT22;29267;50.906;7.248;2023-05-28T10:35:56;28.00;52.60
43671;DHT22;29267;50.906;7.248;2023-05-28T10:38:23;28.00;52.40
43671;DHT22;29267;50.906;7.248;2023-05-28T10:40:48;28.10;51.90
43671;DHT22;29267;50.906;7.248;2023-05-28T10:43:46;28.20;52.50
43671;DHT22;29267;50.906;7.248;2023-05-28T10:49:06;27.80;48.60
43671;DHT22;29267;50.906;7.248;2023-05-28T10:52:02;28.10;49.40
43671;DHT22;29267;50.906;7.248;2023-05-28T10:59:52;27.90;49.00
43671;DHT22;29267;50.906;7.248;2023-05-28T11:02:22;28.10;50.90
43671;DHT22;29267;50.906;7.248;2023-05-28T11:04:53;27.80;47.40
43671;DHT22;29267;50.906;7.248;2023-05-28T11:07:21;27.70;49.70
43671;DHT22;29267;50.906;7.248;2023-05-28T11:09:48;27.90;48.60
43671;DHT22;29267;50.906;7.248;2023-05-28T11:12:15;28.00;48.20
43671;DHT22;29267;50.906;7.248;2023-05-28T11:14:40;27.80;50.50
43671;DHT22;29267;50.906;7.248;2023-05-28T11:17:08;27.80;49.80
43671;DHT22;29267;50.906;7.248;2023-05-28T11:19:45;27.70;48.80
43671;DHT22;29267;50.906;7.248;2023-05-28T11:22:12;27.50;48.70
43671;DHT22;29267;50.906;7.248;2023-05-28T11:24:56;27.20;49.00
43671;DHT22;29267;50.906;7.248;2023-05-28T11:27:27;26.80;49.00
43671;DHT22;29267;50.906;7.248;2023-05-28T11:29:56;26.80;48.90
43671;DHT22;29267;50.906;7.248;2023-05-28T11:32:23;26.70;49.70
43671;DHT22;29267;50.906;7.248;2023-05-28T11:34:50;26.60;49.40
43671;DHT22;29267;50.906;7.248;2023-05-28T11:37:16;26.50;50.00
43671;DHT22;29267;50.906;7.248;2023-05-28T11:39:51;26.50;49.30
43671;DHT22;29267;50.906;7.248;2023-05-28T11:42:18;26.50;49.70
43671;DHT22;29267;50.906;7.248;2023-05-28T11:44:47;26.50;49.30
43671;DHT22;29267;50.906;7.248;2023-05-28T11:47:14;26.50;50.30
43671;DHT22;29267;50.906;7.248;2023-05-28T11:49:40;26.50;48.10
43671;DHT22;29267;50.906;7.248;2023-05-28T11:52:11;26.40;50.00
43671;DHT22;29267;50.906;7.248;2023-05-28T11:54:38;26.30;50.20
43671;DHT22;29267;50.906;7.248;2023-05-28T11:57:04;26.60;50.80
43671;DHT22;29267;50.906;7.248;2023-05-28T11:59:31;26.60;50.00
43671;DHT22;29267;50.906;7.248;2023-05-28T12:02:15;26.40;49.30
43671;DHT22;29267;50.906;7.248;2023-05-28T12:05:00;26.20;49.00
43671;DHT22;29267;50.906;7.248;2023-05-28T12:07:34;26.10;50.30
43671;DHT22;29267;50.906;7.248;2023-05-28T12:10:11;26.10;52.00
43671;DHT22;29267;50.906;7.248;2023-05-28T12:12:44;26.10;50.20
43671;DHT22;29267;50.906;7.248;2023-05-28T12:15:11;26.30;50.90
43671;DHT22;29267;50.906;7.248;2023-05-28T12:17:38;26.20;49.70
43671;DHT22;29267;50.906;7.248;2023-05-28T12:22:38;26.10;49.70
43671;DHT22;29267;50.906;7.248;2023-05-28T12:25:04;26.10;50.00
43671;DHT22;29267;50.906;7.248;2023-05-28T12:27:30;25.90;49.90
43671;DHT22;29267;50.906;7.248;2023-05-28T12:29:56;26.00;50.10
43671;DHT22;29267;50.906;7.248;2023-05-28T12:32:22;25.90;48.60
43671;DHT22;29267;50.906;7.248;2023-05-28T12:34:47;26.10;49.80
43671;DHT22;29267;50.906;7.248;2023-05-28T12:37:15;26.00;50.50
43671;DHT22;29267;50.906;7.248;2023-05-28T12:39:41;26.10;49.20
43671;DHT22;29267;50.906;7.248;2023-05-28T12:42:06;26.00;49.30
43671;DHT22;29267;50.906;7.248;2023-05-28T12:44:32;25.90;49.50
43671;DHT22;29267;50.906;7.248;2023-05-28T12:46:58;25.80;49.00
43671;DHT22;29267;50.906;7.248;2023-05-28T12:49:23;25.90;49.30
43671;DHT22;29267;50.906;7.248;2023-05-28T12:51:49;25.80;50.20
43671;DHT22;29267;50.906;7.248;2023-05-28T12:54:14;25.90;51.70
43671;DHT22;29267;50.906;7.248;2023-05-28T12:56:40;25.90;51.60
43671;DHT22;29267;50.906;7.248;2023-05-28T12:59:06;26.00;52.40
43671;DHT22;29267;50.906;7.248;2023-05-28T13:01:32;26.00;49.60
43671;DHT22;29267;50.906;7.248;2023-05-28T13:03:57;25.90;51.40
43671;DHT22;29267;50.906;7.248;2023-05-28T13:06:23;26.10;52.60
43671;DHT22;29267;50.906;7.248;2023-05-28T13:08:48;26.10;53.90
43671;DHT22;29267;50.906;7.248;2023-05-28T13:11:14;26.10;54.00
43671;DHT22;29267;50.906;7.248;2023-05-28T13:13:40;26.00;54.40
43671;DHT22;29267;50.906;7.248;2023-05-28T13:16:06;25.80;53.90
43671;DHT22;29267;50.906;7.248;2023-05-28T13:18:31;25.50;54.70
43671;DHT22;29267;50.906;7.248;2023-05-28T13:20:57;25.50;56.00
43671;DHT22;29267;50.906;7.248;2023-05-28T13:23:22;25.40;55.50
43671;DHT22;29267;50.906;7.248;2023-05-28T13:25:48;25.40;55.20
43671;DHT22;29267;50.906;7.248;2023-05-28T13:28:14;25.50;54.70
43671;DHT22;29267;50.906;7.248;2023-05-28T13:30:39;25.30;54.90
43671;DHT22;29267;50.906;7.248;2023-05-28T13:33:05;25.30;56.00
43671;DHT22;29267;50.906;7.248;2023-05-28T13:35:31;25.30;55.80
43671;DHT22;29267;50.906;7.248;2023-05-28T13:37:56;25.40;56.30
43671;DHT22;29267;50.906;7.248;2023-05-28T13:40:22;25.40;55.30
43671;DHT22;29267;50.906;7.248;2023-05-28T13:42:49;25.30;55.40
43671;DHT22;29267;50.906;7.248;2023-05-28T13:45:15;25.40;56.80
43671;DHT22;29267;50.906;7.248;2023-05-28T13:47:41;25.30;55.90
43671;DHT22;29267;50.906;7.248;2023-05-28T13:50:07;25.20;57.20
43671;DHT22;29267;50.906;7.248;2023-05-28T13:52:33;25.20;57.50
43671;DHT22;29267;50.906;7.248;2023-05-28T13:54:59;25.20;57.60
43671;DHT22;29267;50.906;7.248;2023-05-28T13:57:25;25.20;58.10
43671;DHT22;29267;50.906;7.248;2023-05-28T13:59:50;25.20;58.00
43671;DHT22;29267;50.906;7.248;2023-05-28T14:02:16;25.10;57.50
43671;DHT22;29267;50.906;7.248;2023-05-28T14:04:42;25.00;57.80
43671;DHT22;29267;50.906;7.248;2023-05-28T14:07:07;25.20;59.20
43671;DHT22;29267;50.906;7.248;2023-05-28T14:09:34;25.20;58.20
43671;DHT22;29267;50.906;7.248;2023-05-28T14:12:02;25.20;58.50
43671;DHT22;29267;50.906;7.248;2023-05-28T14:14:28;25.10;57.60
43671;DHT22;29267;50.906;7.248;2023-05-28T14:16:54;25.00;58.60
43671;DHT22;29267;50.906;7.248;2023-05-28T14:19:19;25.00;60.30
43671;DHT22;29267;50.906;7.248;2023-05-28T14:21:46;25.10;60.10
43671;DHT22;29267;50.906;7.248;2023-05-28T14:24:11;25.00;58.60
43671;DHT22;29267;50.906;7.248;2023-05-28T14:26:37;25.00;59.90
43671;DHT22;29267;50.906;7.248;2023-05-28T14:29:02;24.90;59.90
43671;DHT22;29267;50.906;7.248;2023-05-28T14:31:28;24.80;59.60
43671;DHT22;29267;50.906;7.248;2023-05-28T14:33:54;24.80;60.50
43671;DHT22;29267;50.906;7.248;2023-05-28T14:36:19;24.80;59.50
43671;DHT22;29267;50.906;7.248;2023-05-28T14:38:45;24.70;60.10
43671;DHT22;29267;50.906;7.248;2023-05-28T14:41:11;24.70;59.60
43671;DHT22;29267;50.906;7.248;2023-05-28T14:43:36;24.60;60.20
43671;DHT22;29267;50.906;7.248;2023-05-28T14:46:02;24.50;60.80
43671;DHT22;29267;50.906;7.248;2023-05-28T14:48:28;24.50;61.80
43671;DHT22;29267;50.906;7.248;2023-05-28T14:50:53;24.50;60.70
43671;DHT22;29267;50.906;7.248;2023-05-28T14:53:19;24.50;60.00
43671;DHT22;29267;50.906;7.248;2023-05-28T14:55:45;24.50;60.80
43671;DHT22;29267;50.906;7.248;2023-05-28T14:58:10;24.50;59.90
43671;DHT22;29267;50.906;7.248;2023-05-28T15:00:37;24.50;60.10
43671;DHT22;29267;50.906;7.248;2023-05-28T15:03:02;24.40;60.60
43671;DHT22;29267;50.906;7.248;2023-05-28T15:05:28;24.50;61.50
43671;DHT22;29267;50.906;7.248;2023-05-28T15:07:54;24.50;60.60
43671;DHT22;29267;50.906;7.248;2023-05-28T15:10:20;24.50;60.80
43671;DHT22;29267;50.906;7.248;2023-05-28T15:12:45;24.50;61.20
43671;DHT22;29267;50.906;7.248;2023-05-28T15:15:11;24.50;62.80
43671;DHT22;29267;50.906;7.248;2023-05-28T15:17:37;24.60;61.80
43671;DHT22;29267;50.906;7.248;2023-05-28T15:20:03;24.50;62.70
43671;DHT22;29267;50.906;7.248;2023-05-28T15:22:30;24.60;62.80
43671;DHT22;29267;50.906;7.248;2023-05-28T15:24:55;24.60;62.40
43671;DHT22;29267;50.906;7.248;2023-05-28T15:27:21;24.60;63.70
43671;DHT22;29267;50.906;7.248;2023-05-28T15:29:47;24.50;62.90
43671;DHT22;29267;50.906;7.248;2023-05-28T15:32:13;24.40;62.60
43671;DHT22;29267;50.906;7.248;2023-05-28T15:34:40;24.30;63.70
43671;DHT22;29267;50.906;7.248;2023-05-28T15:37:06;24.40;64.10
43671;DHT22;29267;50.906;7.248;2023-05-28T15:39:33;24.50;64.30